createdAt,value
2017-09-12T00:01:06.060Z,79.90
2017-09-12T00:03:32.014Z,79.90
2017-09-12T00:05:57.975Z,79.80
2017-09-12T00:08:23.947Z,79.80
2017-09-12T00:10:49.915Z,79.60
2017-09-12T00:13:15.821Z,79.80
2017-09-12T00:15:42.061Z,80.10
2017-09-12T00:18:07.986Z,79.90
2017-09-12T00:20:33.945Z,79.70
2017-09-12T00:22:59.887Z,79.80
2017-09-12T00:25:25.811Z,80.20
2017-09-12T00:27:52.463Z,80.20
2017-09-12T00:30:18.454Z,80.20
2017-09-12T00:32:45.358Z,80.20
2017-09-12T00:35:11.388Z,80.40
2017-09-12T00:37:37.348Z,80.40
2017-09-12T00:40:05.108Z,79.90
2017-09-12T00:42:31.238Z,79.90
2017-09-12T00:44:57.285Z,80.20
2017-09-12T00:47:23.535Z,80.30
2017-09-12T00:49:49.638Z,80.50
2017-09-12T00:52:15.679Z,80.60
2017-09-12T00:54:41.687Z,80.30
2017-09-12T00:57:08.540Z,80.30
2017-09-12T00:59:34.507Z,80.30
2017-09-12T01:02:00.569Z,80.70
2017-09-12T01:04:27.425Z,80.60
2017-09-12T01:06:54.913Z,81.00
2017-09-12T01:09:21.013Z,80.90
2017-09-12T01:11:47.052Z,81.30
2017-09-12T01:14:13.871Z,81.90
2017-09-12T01:16:39.948Z,81.70
2017-09-12T01:19:06.086Z,82.00
2017-09-12T01:21:32.921Z,82.20
2017-09-12T01:23:58.920Z,82.00
2017-09-12T01:26:24.955Z,82.40
2017-09-12T01:28:51.046Z,82.10
2017-09-12T01:31:17.091Z,82.50
2017-09-12T01:33:43.099Z,82.50
2017-09-12T01:36:09.192Z,82.60
2017-09-12T01:38:35.325Z,83.20
2017-09-12T01:41:02.371Z,82.30
2017-09-12T01:43:28.544Z,82.60
2017-09-12T01:45:54.632Z,83.00
2017-09-12T01:48:22.450Z,83.20
2017-09-12T01:50:48.683Z,83.30
2017-09-12T01:53:15.475Z,84.30
2017-09-12T01:55:41.517Z,84.10
2017-09-12T01:58:07.588Z,84.60
2017-09-12T02:00:34.559Z,84.80
2017-09-12T02:03:00.603Z,85.10
2017-09-12T02:05:26.516Z,85.50
2017-09-12T02:07:52.506Z,85.80
2017-09-12T02:10:18.525Z,86.00
2017-09-12T02:12:44.801Z,86.10
2017-09-12T02:15:11.573Z,86.20
2017-09-12T02:17:37.948Z,86.50
2017-09-12T02:20:04.005Z,86.70
2017-09-12T02:22:29.988Z,86.40
2017-09-12T02:24:56.783Z,86.60
2017-09-12T02:27:22.843Z,86.60
2017-09-12T02:29:48.939Z,86.40
2017-09-12T02:32:15.235Z,86.30
2017-09-12T02:34:41.276Z,86.30
2017-09-12T02:37:08.239Z,86.00
2017-09-12T02:39:34.242Z,85.90
2017-09-12T02:42:00.251Z,86.40
2017-09-12T02:44:26.333Z,86.00
2017-09-12T02:46:52.561Z,86.00
2017-09-12T02:49:19.356Z,86.30
2017-09-12T02:51:45.397Z,86.20
2017-09-12T02:54:12.198Z,86.60
2017-09-12T02:56:38.235Z,86.60
2017-09-12T02:59:05.007Z,87.30
2017-09-12T03:01:31.037Z,87.10
2017-09-12T03:03:57.097Z,87.10
2017-09-12T03:06:23.154Z,87.00
2017-09-12T03:08:49.221Z,87.20
2017-09-12T03:11:15.293Z,87.50
2017-09-12T03:13:41.368Z,87.30
2017-09-12T03:16:07.313Z,87.60
2017-09-12T03:18:33.516Z,87.50
2017-09-12T03:20:59.576Z,87.50
2017-09-12T03:23:25.631Z,87.70
2017-09-12T03:25:51.926Z,88.60
2017-09-12T03:28:17.947Z,88.30
2017-09-12T03:30:43.961Z,88.60
2017-09-12T03:33:10.101Z,88.90
2017-09-12T03:35:36.116Z,88.70
2017-09-12T03:38:02.164Z,88.90
2017-09-12T03:40:29.216Z,88.70
2017-09-12T03:42:55.344Z,88.50
2017-09-12T03:45:26.357Z,88.20
2017-09-12T03:47:52.415Z,88.20
2017-09-12T03:50:18.495Z,88.20
2017-09-12T03:52:44.537Z,88.40
2017-09-12T03:55:11.724Z,88.80
2017-09-12T03:57:37.714Z,88.70
2017-09-12T04:00:04.543Z,88.70
2017-09-12T04:02:30.592Z,88.60
2017-09-12T04:04:56.640Z,88.70
2017-09-12T04:07:23.395Z,88.90
2017-09-12T04:09:49.675Z,89.10
2017-09-12T04:12:15.665Z,89.20
2017-09-12T04:14:41.694Z,89.40
2017-09-12T04:17:08.517Z,89.00
2017-09-12T04:19:34.933Z,88.90
2017-09-12T04:22:01.021Z,88.90
2017-09-12T04:24:27.317Z,89.10
2017-09-12T04:26:53.344Z,89.20
2017-09-12T04:29:19.387Z,89.10
2017-09-12T04:31:48.782Z,89.50
2017-09-12T04:34:15.104Z,89.00
2017-09-12T04:36:41.127Z,89.00
2017-09-12T04:39:07.227Z,89.30
2017-09-12T04:41:33.172Z,89.30
2017-09-12T04:43:59.541Z,89.40
2017-09-12T04:46:25.513Z,89.60
2017-09-12T04:48:51.416Z,89.80
2017-09-12T04:51:17.343Z,90.00
2017-09-12T04:53:43.871Z,90.10
2017-09-12T04:56:09.820Z,90.30
2017-09-12T04:58:36.567Z,90.40
2017-09-12T05:01:02.621Z,90.40
2017-09-12T05:03:29.270Z,90.40
2017-09-12T05:05:55.245Z,90.40
2017-09-12T05:08:21.254Z,90.30
2017-09-12T05:10:47.201Z,90.20
2017-09-12T05:13:13.891Z,90.00
2017-09-12T05:15:40.107Z,90.00
2017-09-12T05:18:06.167Z,90.00
2017-09-12T05:20:33.117Z,90.20
2017-09-12T05:22:59.097Z,90.00
2017-09-12T05:25:25.037Z,90.40
2017-09-12T05:27:50.973Z,90.90
2017-09-12T05:30:17.184Z,91.00
2017-09-12T05:32:43.097Z,91.00
2017-09-12T05:35:09.041Z,90.80
2017-09-12T05:37:35.045Z,90.60
2017-09-12T05:40:00.986Z,90.70
2017-09-12T05:42:26.986Z,90.40
2017-09-12T05:44:52.991Z,90.50
2017-09-12T05:47:19.699Z,90.00
2017-09-12T05:49:45.719Z,90.00
2017-09-12T05:52:12.395Z,90.60
2017-09-12T05:54:38.384Z,90.50
2017-09-12T05:57:05.069Z,91.30
2017-09-12T05:59:31.014Z,91.30
2017-09-12T06:01:56.948Z,91.70
2017-09-12T06:04:23.091Z,91.60
2017-09-12T06:06:49.032Z,91.80
2017-09-12T06:09:15.308Z,91.60
2017-09-12T06:11:41.343Z,91.40
2017-09-12T06:14:07.555Z,91.00
2017-09-12T06:16:33.716Z,91.10
2017-09-12T06:18:59.861Z,90.80
2017-09-12T06:21:26.886Z,90.90
2017-09-12T06:23:53.584Z,90.70
2017-09-12T06:26:19.531Z,90.60
2017-09-12T06:28:45.545Z,90.50
2017-09-12T06:31:13.388Z,90.50
2017-09-12T06:33:40.158Z,90.50
2017-09-12T06:36:06.278Z,90.80
2017-09-12T06:38:32.384Z,91.00
2017-09-12T06:40:58.435Z,91.00
2017-09-12T06:43:24.428Z,91.00
2017-09-12T06:45:50.378Z,91.00
2017-09-12T06:48:16.401Z,90.80
2017-09-12T06:50:42.424Z,91.00
2017-09-12T06:53:08.571Z,91.10
2017-09-12T06:55:34.571Z,90.30
2017-09-12T06:58:01.275Z,90.10
2017-09-12T07:00:27.236Z,90.20
2017-09-12T07:02:53.212Z,90.00
2017-09-12T07:05:19.220Z,89.60
2017-09-12T07:07:45.202Z,90.00
2017-09-12T07:10:12.496Z,88.00
2017-09-12T07:12:38.471Z,87.80
2017-09-12T07:15:05.185Z,87.70
2017-09-12T07:17:32.097Z,87.60
2017-09-12T07:19:58.123Z,87.40
2017-09-12T07:22:24.116Z,86.00
2017-09-12T07:24:50.152Z,86.20
2017-09-12T07:27:16.446Z,85.70
2017-09-12T07:29:42.390Z,85.20
2017-09-12T07:32:08.394Z,84.40
2017-09-12T07:34:34.420Z,84.60
2017-09-12T07:37:00.549Z,84.30
2017-09-12T07:39:26.705Z,84.10
2017-09-12T07:41:52.786Z,84.30
2017-09-12T07:44:19.525Z,84.20
2017-09-12T07:46:45.548Z,84.10
2017-09-12T07:49:12.210Z,84.30
2017-09-12T07:51:38.213Z,84.30
2017-09-12T07:54:04.388Z,84.00
2017-09-12T07:56:30.357Z,83.50
2017-09-12T07:58:56.360Z,84.00
2017-09-12T08:01:23.840Z,84.60
2017-09-12T08:03:51.509Z,84.40
2017-09-12T08:06:17.523Z,86.20
2017-09-12T08:08:45.148Z,86.20
2017-09-12T08:11:12.027Z,86.30
2017-09-12T08:13:38.870Z,86.40
2017-09-12T08:16:06.516Z,86.50
2017-09-12T08:18:32.985Z,86.10
2017-09-12T08:20:59.341Z,85.50
2017-09-12T08:23:28.147Z,85.90
2017-09-12T08:25:54.684Z,85.10
2017-09-12T08:28:21.556Z,84.40
2017-09-12T08:30:47.594Z,83.30
2017-09-12T08:33:13.831Z,83.40
2017-09-12T08:35:39.821Z,83.40
2017-09-12T08:38:05.992Z,83.10
2017-09-12T08:40:32.708Z,82.40
2017-09-12T08:42:58.770Z,81.30
2017-09-12T08:45:25.739Z,80.40
2017-09-12T08:47:51.707Z,79.70
2017-09-12T08:50:17.743Z,79.90
2017-09-12T08:52:43.731Z,80.60
2017-09-12T08:55:09.665Z,79.90
2017-09-12T08:57:35.620Z,80.50
2017-09-12T09:00:04.521Z,80.10
2017-09-12T09:02:30.478Z,78.60
2017-09-12T09:04:57.067Z,77.90
2017-09-12T09:07:23.189Z,77.60
2017-09-12T09:09:49.154Z,77.80
2017-09-12T09:12:15.071Z,78.10
2017-09-12T09:14:40.989Z,78.20
2017-09-12T09:17:06.938Z,77.70
2017-09-12T09:19:32.929Z,77.60
2017-09-12T09:21:59.115Z,76.60
2017-09-12T09:24:26.908Z,75.90
2017-09-12T09:29:24.714Z,76.40
2017-09-12T09:31:51.557Z,76.10
2017-09-12T09:34:18.413Z,77.40
2017-09-12T09:36:45.339Z,76.00
2017-09-12T09:39:11.316Z,75.90
2017-09-12T09:41:37.599Z,75.10
2017-09-12T09:44:03.746Z,75.00
2017-09-12T09:46:29.712Z,74.40
2017-09-12T09:48:55.787Z,71.90
2017-09-12T09:51:21.775Z,72.00
2017-09-12T09:53:52.032Z,71.60
2017-09-12T09:56:18.012Z,71.60
2017-09-12T09:58:45.411Z,72.00
2017-09-12T10:01:11.432Z,71.70
2017-09-12T10:03:37.419Z,71.40
2017-09-12T10:06:03.375Z,70.90
2017-09-12T10:08:29.419Z,71.20
2017-09-12T10:10:55.377Z,71.50
2017-09-12T10:13:21.369Z,70.40
2017-09-12T10:15:48.032Z,70.40
2017-09-12T10:18:13.944Z,70.40
2017-09-12T10:20:39.899Z,70.40
2017-09-12T10:23:06.632Z,69.20
2017-09-12T10:25:32.761Z,69.20
2017-09-12T10:27:58.709Z,69.30
2017-09-12T10:30:24.683Z,69.80
2017-09-12T10:32:50.685Z,67.40
2017-09-12T10:35:16.624Z,67.60
2017-09-12T10:37:43.591Z,68.80
2017-09-12T10:40:09.529Z,69.70
2017-09-12T10:42:35.540Z,70.40
2017-09-12T10:45:01.527Z,71.40
2017-09-12T10:47:27.475Z,72.50
2017-09-12T10:49:54.307Z,73.20
2017-09-12T10:52:20.301Z,74.10
2017-09-12T10:54:46.284Z,75.10
2017-09-12T10:57:12.230Z,75.90
2017-09-12T10:59:38.199Z,76.30
2017-09-12T11:02:04.236Z,76.50
2017-09-12T11:04:30.933Z,76.10
2017-09-12T11:06:56.863Z,76.00
2017-09-12T11:09:22.818Z,74.30
2017-09-12T11:11:48.754Z,74.80
2017-09-12T11:14:15.450Z,72.80
2017-09-12T11:16:42.036Z,72.60
2017-09-12T11:19:07.983Z,70.80
2017-09-12T11:21:33.933Z,69.80
2017-09-12T11:24:00.350Z,69.30
2017-09-12T11:26:26.314Z,69.90
2017-09-12T11:28:52.297Z,69.10
2017-09-12T11:31:18.255Z,68.20
2017-09-12T11:33:44.205Z,68.20
2017-09-12T11:36:10.128Z,67.60
2017-09-12T11:38:37.095Z,67.50
2017-09-12T11:41:03.048Z,67.40
2017-09-12T11:43:28.965Z,67.10
2017-09-12T11:45:54.919Z,67.80
2017-09-12T11:48:20.871Z,70.70
2017-09-12T11:50:46.819Z,71.20
2017-09-12T11:53:13.519Z,75.80
2017-09-12T11:55:39.451Z,75.70
2017-09-12T11:58:05.451Z,78.10
2017-09-12T12:00:31.455Z,78.90
2017-09-12T12:02:57.415Z,78.40
2017-09-12T12:05:23.353Z,77.90
2017-09-12T12:07:49.589Z,79.00
2017-09-12T12:10:16.807Z,78.60
2017-09-12T12:12:42.780Z,76.60
2017-09-12T12:15:09.259Z,74.30
2017-09-12T12:17:36.777Z,73.10
2017-09-12T12:20:02.738Z,73.80
2017-09-12T12:22:29.661Z,73.30
2017-09-12T12:24:55.808Z,72.70
2017-09-12T12:27:23.265Z,71.40
2017-09-12T12:29:52.551Z,71.60
2017-09-12T12:32:19.444Z,73.20
2017-09-12T12:34:45.776Z,73.00
2017-09-12T12:37:11.777Z,73.20
2017-09-12T12:47:15.049Z,64.60
2017-09-12T12:49:42.192Z,64.10
2017-09-12T12:52:09.251Z,66.40
2017-09-12T12:54:35.950Z,66.30
2017-09-12T12:57:02.656Z,66.80
2017-09-12T12:59:28.723Z,67.60
2017-09-12T13:01:55.375Z,68.00
2017-09-12T13:04:26.487Z,68.30
2017-09-12T13:06:52.441Z,66.20
2017-09-12T13:09:20.049Z,63.50
2017-09-12T13:11:47.955Z,63.70
2017-09-12T13:14:14.479Z,62.50
2017-09-12T13:16:41.446Z,61.20
2017-09-12T13:19:09.218Z,59.80
2017-09-12T13:21:37.226Z,58.80
2017-09-12T13:24:04.916Z,58.80
2017-09-12T13:26:31.649Z,59.70
2017-09-12T13:28:57.655Z,62.10
2017-09-12T13:31:23.637Z,62.90
2017-09-12T13:33:49.749Z,62.90
2017-09-12T13:36:15.778Z,61.90
2017-09-12T13:38:41.923Z,60.90
2017-09-12T13:43:38.631Z,63.50
2017-09-12T13:46:04.673Z,64.60
2017-09-12T13:48:30.712Z,66.10
2017-09-12T13:50:57.014Z,66.00
2017-09-12T13:53:24.172Z,63.40
2017-09-12T13:55:51.092Z,63.20
2017-09-12T13:58:17.662Z,63.90
2017-09-12T14:00:43.863Z,62.90
2017-09-12T14:03:10.840Z,61.70
2017-09-12T14:05:38.559Z,61.60
2017-09-12T14:08:04.732Z,62.30
2017-09-12T14:10:33.257Z,65.40
2017-09-12T14:13:00.798Z,65.30
2017-09-12T14:15:27.788Z,66.80
2017-09-12T14:17:54.560Z,68.20
2017-09-12T14:20:21.695Z,68.10
2017-09-12T14:22:47.861Z,66.10
2017-09-12T14:25:14.150Z,65.90
2017-09-12T14:27:40.196Z,66.10
2017-09-12T14:30:06.229Z,61.70
2017-09-12T14:32:36.255Z,59.90
2017-09-12T14:35:08.022Z,58.50
2017-09-12T14:37:33.992Z,58.20
2017-09-12T14:40:00.730Z,58.80
2017-09-12T14:42:28.624Z,58.00
2017-09-12T14:44:54.644Z,57.90
2017-09-12T14:47:20.644Z,57.70
2017-09-12T14:49:47.926Z,57.70
2017-09-12T14:52:15.744Z,58.40
2017-09-12T14:54:43.522Z,57.50
2017-09-12T14:57:09.664Z,57.50
2017-09-12T14:59:35.644Z,55.80
2017-09-12T15:02:02.735Z,54.50
2017-09-12T15:04:28.814Z,54.50
2017-09-12T15:06:54.850Z,54.00
2017-09-12T15:09:23.615Z,52.80
2017-09-12T15:11:49.696Z,52.80
2017-09-12T15:14:15.969Z,53.00
2017-09-12T15:16:43.224Z,53.60
2017-09-12T15:19:09.343Z,54.40
2017-09-12T15:21:35.353Z,56.20
2017-09-12T15:24:03.011Z,57.30
2017-09-12T15:26:29.764Z,57.80
2017-09-12T15:28:56.780Z,59.40
2017-09-12T15:31:22.789Z,59.40
2017-09-12T15:33:51.439Z,61.20
2017-09-12T15:36:18.435Z,61.80
2017-09-12T15:38:44.698Z,61.70
2017-09-12T15:41:11.455Z,61.40
2017-09-12T15:43:37.430Z,61.20
2017-09-12T15:46:03.859Z,60.50
2017-09-12T15:48:29.835Z,58.40
2017-09-12T15:50:55.875Z,58.10
2017-09-12T15:53:21.988Z,57.80
2017-09-12T15:55:48.271Z,58.00
2017-09-12T15:58:14.359Z,57.60
2017-09-12T16:00:40.264Z,57.10
2017-09-12T16:03:06.223Z,57.40
2017-09-12T16:05:32.211Z,60.70
2017-09-12T16:07:58.158Z,66.10
2017-09-12T16:10:24.146Z,72.20
2017-09-12T16:12:50.095Z,77.30
2017-09-12T16:15:16.070Z,73.90
2017-09-12T16:17:42.042Z,77.70
2017-09-12T16:20:07.989Z,75.30
2017-09-12T16:22:33.955Z,79.80
2017-09-12T16:25:00.751Z,79.40
2017-09-12T16:27:26.690Z,78.70
2017-09-12T16:29:52.815Z,77.80
2017-09-12T16:32:18.727Z,79.60
2017-09-12T16:34:45.400Z,83.60
2017-09-12T16:37:11.337Z,83.60
2017-09-12T16:39:38.325Z,78.60
2017-09-12T16:42:05.581Z,81.00
2017-09-12T16:44:31.495Z,81.30
2017-09-12T16:46:57.447Z,83.70
2017-09-12T16:49:23.367Z,82.50
2017-09-12T16:51:49.380Z,84.10
2017-09-12T16:54:16.075Z,84.80
2017-09-12T16:56:42.038Z,84.60
2017-09-12T16:59:07.964Z,87.20
2017-09-12T17:01:33.919Z,85.20
2017-09-12T17:03:59.839Z,85.60
2017-09-12T17:06:25.797Z,86.80
2017-09-12T17:08:51.736Z,90.80
2017-09-12T17:11:17.649Z,91.30
2017-09-12T17:13:43.561Z,90.50
2017-09-12T17:16:09.472Z,91.30
2017-09-12T17:18:35.399Z,91.60
2017-09-12T17:21:01.420Z,92.20
2017-09-12T17:23:27.339Z,92.50
2017-09-12T17:25:54.306Z,89.00
2017-09-12T17:28:20.236Z,88.60
2017-09-12T17:30:47.204Z,90.40
2017-09-12T17:33:13.129Z,88.90
2017-09-12T17:35:39.019Z,90.10
2017-09-12T17:38:05.674Z,90.20
2017-09-12T17:40:31.659Z,90.20
2017-09-12T17:42:57.768Z,90.70
2017-09-12T17:45:23.791Z,90.70
2017-09-12T17:47:49.779Z,86.40
2017-09-12T17:50:15.735Z,87.10
2017-09-12T17:52:41.698Z,87.90
2017-09-12T17:55:07.695Z,88.00
2017-09-12T17:57:33.596Z,90.00
2017-09-12T17:59:59.889Z,90.30
2017-09-12T18:02:25.875Z,91.20
2017-09-12T18:04:51.823Z,91.30
2017-09-12T18:07:17.812Z,91.90
2017-09-12T18:09:43.767Z,91.80
2017-09-12T18:12:09.713Z,92.40
2017-09-12T18:14:35.709Z,93.00
2017-09-12T18:17:01.728Z,93.60
2017-09-12T18:19:27.735Z,93.40
2017-09-12T18:21:54.463Z,93.70
2017-09-12T18:24:21.225Z,93.80
2017-09-12T18:26:47.142Z,93.70
2017-09-12T18:29:13.167Z,93.90
2017-09-12T18:31:39.138Z,93.80
2017-09-12T18:34:05.174Z,94.20
2017-09-12T18:36:31.126Z,94.50
2017-09-12T18:38:57.845Z,94.80
2017-09-12T18:41:24.614Z,94.80
2017-09-12T18:43:50.589Z,94.70
2017-09-12T18:46:16.527Z,95.00
2017-09-12T18:48:42.481Z,95.00
2017-09-12T18:51:09.247Z,95.00
2017-09-12T18:53:35.241Z,95.40
2017-09-12T18:56:01.147Z,94.80
2017-09-12T18:58:27.847Z,94.50
2017-09-12T19:00:54.571Z,93.70
2017-09-12T19:03:20.593Z,93.70
2017-09-12T19:05:46.624Z,93.40
2017-09-12T19:08:12.643Z,93.20
2017-09-12T19:10:38.641Z,92.80
2017-09-12T19:13:04.645Z,92.50
2017-09-12T19:15:30.691Z,92.50
2017-09-12T19:17:56.646Z,92.80
2017-09-12T19:20:22.695Z,92.90
2017-09-12T19:22:49.365Z,93.30
2017-09-12T19:25:15.328Z,93.30
2017-09-12T19:27:41.301Z,93.90
2017-09-12T19:30:07.366Z,94.40
2017-09-12T19:32:33.480Z,94.50
2017-09-12T19:34:59.432Z,94.60
2017-09-12T19:37:25.473Z,95.00
2017-09-12T19:39:52.284Z,94.40
2017-09-12T19:42:18.386Z,94.30
2017-09-12T19:44:44.446Z,94.40
2017-09-12T19:47:10.767Z,94.60
2017-09-12T19:49:36.886Z,94.90
2017-09-12T19:52:02.866Z,95.00
2017-09-12T19:54:28.821Z,95.30
2017-09-12T19:56:54.745Z,95.10
2017-09-12T19:59:20.785Z,95.30
2017-09-12T20:01:46.809Z,95.50
2017-09-12T20:04:12.761Z,95.80
2017-09-12T20:06:39.559Z,95.60
2017-09-12T20:09:05.570Z,95.50
2017-09-12T20:11:31.494Z,95.60
2017-09-12T20:13:57.553Z,96.10
2017-09-12T20:16:23.715Z,96.20
2017-09-12T20:18:49.768Z,95.90
2017-09-12T20:21:15.779Z,96.30
2017-09-12T20:23:41.737Z,96.50
2017-09-12T20:26:07.718Z,96.40
2017-09-12T20:28:33.695Z,95.90
2017-09-12T20:30:59.662Z,95.90
2017-09-12T20:33:25.632Z,95.80
2017-09-12T20:35:51.768Z,95.30
2017-09-12T20:38:17.885Z,95.40
2017-09-12T20:40:43.947Z,95.10
2017-09-12T20:43:10.813Z,95.50
2017-09-12T20:45:37.025Z,95.40
2017-09-12T20:48:03.071Z,95.20
2017-09-12T20:50:29.081Z,94.80
2017-09-12T20:52:55.165Z,94.50
2017-09-12T20:55:21.151Z,94.60
2017-09-12T20:57:47.135Z,94.30
2017-09-12T21:00:13.102Z,94.20
2017-09-12T21:02:39.140Z,94.20
2017-09-12T21:05:05.899Z,93.70
2017-09-12T21:07:31.915Z,93.60
2017-09-12T21:09:57.919Z,93.80
2017-09-12T21:12:24.752Z,93.50
2017-09-12T21:14:50.796Z,93.50
2017-09-12T21:17:17.062Z,93.20
2017-09-12T21:19:43.051Z,93.10
2017-09-12T21:22:09.859Z,93.00
2017-09-12T21:24:35.872Z,92.90
2017-09-12T21:27:01.921Z,92.90
2017-09-12T21:29:28.021Z,93.00
2017-09-12T21:31:54.048Z,93.00
2017-09-12T21:34:20.061Z,92.90
2017-09-12T21:36:46.123Z,92.80
2017-09-12T21:39:12.109Z,92.90
2017-09-12T21:41:38.173Z,93.00
2017-09-12T21:44:04.318Z,92.80
2017-09-12T21:46:30.314Z,93.00
2017-09-12T21:48:56.421Z,92.70
2017-09-12T21:51:22.482Z,92.60
2017-09-12T21:53:48.446Z,92.30
2017-09-12T21:56:14.520Z,92.40
2017-09-12T21:58:40.689Z,92.40
2017-09-12T22:01:06.666Z,92.30
2017-09-12T22:03:32.762Z,92.40
2017-09-12T22:05:58.799Z,92.40
2017-09-12T22:08:24.749Z,92.50
2017-09-12T22:10:51.431Z,92.50
2017-09-12T22:13:17.473Z,92.40
2017-09-12T22:15:44.173Z,93.00
2017-09-12T22:18:10.136Z,92.90
2017-09-12T22:20:36.860Z,93.40
2017-09-12T22:23:02.873Z,93.30
2017-09-12T22:25:28.831Z,93.40
2017-09-12T22:27:54.732Z,93.60
2017-09-12T22:30:20.693Z,93.90
2017-09-12T22:32:46.650Z,94.50
2017-09-12T22:35:12.716Z,94.40
2017-09-12T22:37:38.739Z,94.80
2017-09-12T22:40:04.742Z,94.80
2017-09-12T22:42:30.671Z,95.10
2017-09-12T22:44:56.677Z,95.30
2017-09-12T22:47:22.642Z,95.20
2017-09-12T22:49:48.647Z,95.40
2017-09-12T22:52:14.573Z,94.70
2017-09-12T22:54:40.491Z,94.60
2017-09-12T22:57:06.563Z,94.80
2017-09-12T22:59:32.534Z,94.80
2017-09-12T23:01:58.576Z,94.50
2017-09-12T23:04:24.588Z,94.30
2017-09-12T23:06:50.605Z,94.40
2017-09-12T23:09:16.735Z,94.60
2017-09-12T23:11:42.710Z,94.60
2017-09-12T23:14:08.859Z,94.70
2017-09-12T23:16:34.850Z,94.90
2017-09-12T23:19:00.821Z,95.20
2017-09-12T23:21:26.797Z,95.30
2017-09-12T23:23:52.718Z,95.60
2017-09-12T23:26:19.361Z,95.50
2017-09-12T23:28:45.349Z,95.50
2017-09-12T23:31:11.325Z,95.50
2017-09-12T23:33:39.890Z,95.80
2017-09-12T23:36:05.847Z,95.80
2017-09-12T23:38:31.772Z,95.80
2017-09-12T23:40:57.727Z,95.90
2017-09-12T23:43:23.750Z,96.00
2017-09-12T23:45:49.795Z,96.20
2017-09-12T23:48:15.735Z,96.20
2017-09-12T23:50:41.720Z,96.20
2017-09-12T23:53:07.734Z,96.10
2017-09-12T23:55:33.675Z,96.10
2017-09-12T23:57:59.600Z,96.10
